sensor_id;sensor_type;location;lat;lon;timestamp;pressure;altitude;pressure_sealevel;temperature;humidity
40994;BME280;26722;43.212;27.932;2023-01-30T00:01:44;55401.13;;;-146.72;54.33
40994;BME280;26722;43.212;27.932;2023-01-30T00:04:11;55358.91;;;-146.72;54.01
40994;BME280;26722;43.212;27.932;2023-01-30T00:06:37;55411.69;;;-146.72;54.35
40994;BME280;26722;43.212;27.932;2023-01-30T00:09:03;55426.47;;;-146.72;54.68
40994;BME280;26722;43.212;27.932;2023-01-30T00:11:28;55443.34;;;-146.72;55.05
40994;BME280;26722;43.212;27.932;2023-01-30T00:13:56;55407.47;;;-146.72;55.23
40994;BME280;26722;43.212;27.932;2023-01-30T00:16:22;55415.91;;;-146.72;55.34
40994;BME280;26722;43.212;27.932;2023-01-30T00:18:47;55418.00;;;-146.72;55.57
40994;BME280;26722;43.212;27.932;2023-01-30T00:21:13;55424.34;;;-146.72;55.91
40994;BME280;26722;43.212;27.932;2023-01-30T00:23:39;55441.25;;;-146.72;55.69
40994;BME280;26722;43.212;27.932;2023-01-30T00:26:05;55422.25;;;-146.72;55.44
40994;BME280;26722;43.212;27.932;2023-01-30T00:28:32;55399.00;;;-146.72;55.54
40994;BME280;26722;43.212;27.932;2023-01-30T00:30:57;55403.25;;;-146.72;55.01
40994;BME280;26722;43.212;27.932;2023-01-30T00:33:24;55394.78;;;-146.72;55.09
40994;BME280;26722;43.212;27.932;2023-01-30T00:35:51;55394.78;;;-146.72;54.80
40994;BME280;26722;43.212;27.932;2023-01-30T00:38:17;55396.91;;;-146.72;54.39
40994;BME280;26722;43.212;27.932;2023-01-30T00:40:43;55377.91;;;-146.72;53.43
40994;BME280;26722;43.212;27.932;2023-01-30T00:43:14;55369.44;;;-146.72;53.56
40994;BME280;26722;43.212;27.932;2023-01-30T00:45:59;55388.47;;;-146.72;53.97
40994;BME280;26722;43.212;27.932;2023-01-30T00:48:44;55382.13;;;-146.72;53.67
40994;BME280;26722;43.212;27.932;2023-01-30T00:51:10;55388.47;;;-146.72;53.60
40994;BME280;26722;43.212;27.932;2023-01-30T00:53:35;55411.69;;;-146.72;53.66
40994;BME280;26722;43.212;27.932;2023-01-30T00:56:01;55365.22;;;-146.72;53.62
40994;BME280;26722;43.212;27.932;2023-01-30T00:58:27;55377.91;;;-146.72;53.25
40994;BME280;26722;43.212;27.932;2023-01-30T01:00:52;55386.34;;;-146.72;53.25
40994;BME280;26722;43.212;27.932;2023-01-30T01:03:18;55384.22;;;-146.72;53.41
40994;BME280;26722;43.212;27.932;2023-01-30T01:05:44;55407.47;;;-146.72;53.54
40994;BME280;26722;43.212;27.932;2023-01-30T01:08:10;55407.47;;;-146.72;53.63
40994;BME280;26722;43.212;27.932;2023-01-30T01:10:36;55396.91;;;-146.72;53.94
40994;BME280;26722;43.212;27.932;2023-01-30T01:13:02;55394.78;;;-146.72;53.66
40994;BME280;26722;43.212;27.932;2023-01-30T01:15:27;55377.91;;;-146.72;53.79
40994;BME280;26722;43.212;27.932;2023-01-30T01:17:53;55420.13;;;-146.72;53.98
40994;BME280;26722;43.212;27.932;2023-01-30T01:20:20;55411.69;;;-146.72;54.00
40994;BME280;26722;43.212;27.932;2023-01-30T01:22:46;55411.69;;;-146.72;54.62
40994;BME280;26722;43.212;27.932;2023-01-30T01:25:16;55424.34;;;-146.72;54.30
40994;BME280;26722;43.212;27.932;2023-01-30T01:27:44;55390.56;;;-146.72;54.55
40994;BME280;26722;43.212;27.932;2023-01-30T01:30:10;55401.13;;;-146.72;54.31
40994;BME280;26722;43.212;27.932;2023-01-30T01:32:35;55424.34;;;-146.72;54.50
40994;BME280;26722;43.212;27.932;2023-01-30T01:35:01;55409.56;;;-146.72;54.68
40994;BME280;26722;43.212;27.932;2023-01-30T01:37:26;55375.78;;;-146.72;54.76
40994;BME280;26722;43.212;27.932;2023-01-30T01:39:52;55424.34;;;-146.72;54.96
40994;BME280;26722;43.212;27.932;2023-01-30T01:42:37;55420.13;;;-146.72;55.37
40994;BME280;26722;43.212;27.932;2023-01-30T01:50:20;55424.34;;;-146.72;55.75
40994;BME280;26722;43.212;27.932;2023-01-30T01:52:48;55437.03;;;-146.72;55.53
40994;BME280;26722;43.212;27.932;2023-01-30T01:55:17;55399.00;;;-146.72;55.19
40994;BME280;26722;43.212;27.932;2023-01-30T01:57:48;55396.91;;;-146.72;54.94
40994;BME280;26722;43.212;27.932;2023-01-30T02:00:17;55394.78;;;-146.72;55.20
40994;BME280;26722;43.212;27.932;2023-01-30T02:02:48;55420.13;;;-146.72;55.49
40994;BME280;26722;43.212;27.932;2023-01-30T02:05:16;55420.13;;;-146.72;55.09
40994;BME280;26722;43.212;27.932;2023-01-30T02:07:48;55437.03;;;-146.72;55.39
40994;BME280;26722;43.212;27.932;2023-01-30T02:10:18;55409.56;;;-146.72;55.67
40994;BME280;26722;43.212;27.932;2023-01-30T02:12:45;55428.56;;;-146.72;55.93
40994;BME280;26722;43.212;27.932;2023-01-30T02:15:11;55420.13;;;-146.72;56.03
40994;BME280;26722;43.212;27.932;2023-01-30T02:17:36;55392.69;;;-146.72;55.92
40994;BME280;26722;43.212;27.932;2023-01-30T02:35:59;55399.00;;;-146.72;57.33
40994;BME280;26722;43.212;27.932;2023-01-30T02:41:37;55432.78;;;-146.72;59.21
40994;BME280;26722;43.212;27.932;2023-01-30T02:44:15;55420.13;;;-146.72;59.78
40994;BME280;26722;43.212;27.932;2023-01-30T02:47:02;55407.47;;;-146.72;60.64
40994;BME280;26722;43.212;27.932;2023-01-30T02:52:02;55411.69;;;-146.72;62.13
40994;BME280;26722;43.212;27.932;2023-01-30T02:54:31;55384.22;;;-146.72;62.76
40994;BME280;26722;43.212;27.932;2023-01-30T02:56:57;55405.34;;;-146.72;63.21
40994;BME280;26722;43.212;27.932;2023-01-30T02:59:30;55415.91;;;-146.72;63.53
40994;BME280;26722;43.212;27.932;2023-01-30T03:04:40;55432.78;;;-146.72;63.45
40994;BME280;26722;43.212;27.932;2023-01-30T03:13:10;55424.34;;;-146.72;64.37
40994;BME280;26722;43.212;27.932;2023-01-30T03:15:44;55396.91;;;-146.72;64.60
40994;BME280;26722;43.212;27.932;2023-01-30T03:18:12;55424.34;;;-146.72;64.21
40994;BME280;26722;43.212;27.932;2023-01-30T03:20:39;55396.91;;;-146.72;64.46
40994;BME280;26722;43.212;27.932;2023-01-30T03:23:06;55420.13;;;-146.72;64.32
40994;BME280;26722;43.212;27.932;2023-01-30T03:25:32;55437.03;;;-146.72;64.14
40994;BME280;26722;43.212;27.932;2023-01-30T03:28:01;55420.13;;;-146.72;64.07
40994;BME280;26722;43.212;27.932;2023-01-30T03:30:27;55405.34;;;-146.72;64.29
40994;BME280;26722;43.212;27.932;2023-01-30T03:32:53;55411.69;;;-146.72;64.29
40994;BME280;26722;43.212;27.932;2023-01-30T03:35:18;55424.34;;;-146.72;63.91
40994;BME280;26722;43.212;27.932;2023-01-30T03:37:44;55411.69;;;-146.72;64.17
40994;BME280;26722;43.212;27.932;2023-01-30T03:40:11;55420.13;;;-146.72;64.24
40994;BME280;26722;43.212;27.932;2023-01-30T03:42:37;55399.00;;;-146.72;64.21
40994;BME280;26722;43.212;27.932;2023-01-30T03:45:03;55424.34;;;-146.72;64.63
40994;BME280;26722;43.212;27.932;2023-01-30T03:47:29;55430.69;;;-146.72;64.91
40994;BME280;26722;43.212;27.932;2023-01-30T03:49:54;55407.47;;;-146.72;65.20
40994;BME280;26722;43.212;27.932;2023-01-30T03:52:20;55428.56;;;-146.72;65.48
40994;BME280;26722;43.212;27.932;2023-01-30T03:54:45;55409.56;;;-146.72;66.03
40994;BME280;26722;43.212;27.932;2023-01-30T03:57:10;55432.78;;;-146.72;66.11
40994;BME280;26722;43.212;27.932;2023-01-30T03:59:36;55418.00;;;-146.72;65.89
40994;BME280;26722;43.212;27.932;2023-01-30T04:02:01;55424.34;;;-146.72;65.71
40994;BME280;26722;43.212;27.932;2023-01-30T04:04:27;55409.56;;;-146.72;66.09
40994;BME280;26722;43.212;27.932;2023-01-30T04:06:52;55420.13;;;-146.72;66.43
40994;BME280;26722;43.212;27.932;2023-01-30T04:09:18;55422.25;;;-146.72;66.21
40994;BME280;26722;43.212;27.932;2023-01-30T04:11:43;55409.56;;;-146.72;66.47
40994;BME280;26722;43.212;27.932;2023-01-30T04:14:08;55424.34;;;-146.72;66.85
40994;BME280;26722;43.212;27.932;2023-01-30T04:16:34;55428.56;;;-146.72;66.85
40994;BME280;26722;43.212;27.932;2023-01-30T04:18:59;55413.78;;;-146.72;67.24
40994;BME280;26722;43.212;27.932;2023-01-30T04:21:25;55407.47;;;-146.72;67.90
40994;BME280;26722;43.212;27.932;2023-01-30T04:23:50;55432.78;;;-146.72;68.11
40994;BME280;26722;43.212;27.932;2023-01-30T04:26:15;55424.34;;;-146.72;68.51
40994;BME280;26722;43.212;27.932;2023-01-30T04:28:41;55420.13;;;-146.72;68.32
40994;BME280;26722;43.212;27.932;2023-01-30T04:31:08;55413.78;;;-146.72;68.21
40994;BME280;26722;43.212;27.932;2023-01-30T04:33:34;55405.34;;;-146.72;68.31
40994;BME280;26722;43.212;27.932;2023-01-30T04:36:00;55430.69;;;-146.72;68.29
40994;BME280;26722;43.212;27.932;2023-01-30T04:38:29;55424.34;;;-146.72;67.95
40994;BME280;26722;43.212;27.932;2023-01-30T04:40:56;55428.56;;;-146.72;68.19
40994;BME280;26722;43.212;27.932;2023-01-30T04:43:23;55428.56;;;-146.72;67.86
40994;BME280;26722;43.212;27.932;2023-01-30T04:45:49;55409.56;;;-146.72;67.78
40994;BME280;26722;43.212;27.932;2023-01-30T04:48:16;55426.47;;;-146.72;68.10
40994;BME280;26722;43.212;27.932;2023-01-30T04:50:42;55422.25;;;-146.72;68.48
40994;BME280;26722;43.212;27.932;2023-01-30T04:53:09;55445.47;;;-146.72;68.62
40994;BME280;26722;43.212;27.932;2023-01-30T04:55:35;55399.00;;;-146.72;68.86
40994;BME280;26722;43.212;27.932;2023-01-30T04:58:01;55428.56;;;-146.72;68.89
40994;BME280;26722;43.212;27.932;2023-01-30T05:00:27;55411.69;;;-146.72;69.11
40994;BME280;26722;43.212;27.932;2023-01-30T05:02:53;55411.69;;;-146.72;69.77
40994;BME280;26722;43.212;27.932;2023-01-30T05:05:21;55422.25;;;-146.72;70.00
40994;BME280;26722;43.212;27.932;2023-01-30T05:07:47;55424.34;;;-146.72;69.89
40994;BME280;26722;43.212;27.932;2023-01-30T05:10:13;55394.78;;;-146.72;70.13
40994;BME280;26722;43.212;27.932;2023-01-30T05:12:38;55437.03;;;-146.72;69.72
40994;BME280;26722;43.212;27.932;2023-01-30T05:15:04;55426.47;;;-146.72;69.69
40994;BME280;26722;43.212;27.932;2023-01-30T05:17:31;55409.56;;;-146.72;69.87
40994;BME280;26722;43.212;27.932;2023-01-30T05:19:56;55409.56;;;-146.72;70.26
40994;BME280;26722;43.212;27.932;2023-01-30T05:22:22;55426.47;;;-146.72;70.39
40994;BME280;26722;43.212;27.932;2023-01-30T05:24:47;55399.00;;;-146.72;70.04
40994;BME280;26722;43.212;27.932;2023-01-30T05:27:13;55409.56;;;-146.72;70.08
40994;BME280;26722;43.212;27.932;2023-01-30T05:29:38;55409.56;;;-146.72;70.16
40994;BME280;26722;43.212;27.932;2023-01-30T05:32:04;55413.78;;;-146.72;69.97
40994;BME280;26722;43.212;27.932;2023-01-30T05:34:29;55422.25;;;-146.72;70.25
40994;BME280;26722;43.212;27.932;2023-01-30T05:36:55;55409.56;;;-146.72;70.05
40994;BME280;26722;43.212;27.932;2023-01-30T05:39:20;55426.47;;;-146.72;70.48
40994;BME280;26722;43.212;27.932;2023-01-30T05:41:46;55390.56;;;-146.72;70.56
40994;BME280;26722;43.212;27.932;2023-01-30T05:44:11;55420.13;;;-146.72;69.22
40994;BME280;26722;43.212;27.932;2023-01-30T05:46:37;55396.91;;;-146.72;69.52
40994;BME280;26722;43.212;27.932;2023-01-30T05:49:02;55422.25;;;-146.72;69.72
40994;BME280;26722;43.212;27.932;2023-01-30T05:51:28;55392.69;;;-146.72;70.05
40994;BME280;26722;43.212;27.932;2023-01-30T05:53:54;55418.00;;;-146.72;69.67
40994;BME280;26722;43.212;27.932;2023-01-30T05:56:20;55407.47;;;-146.72;69.90
40994;BME280;26722;43.212;27.932;2023-01-30T05:58:54;55432.78;;;-146.72;69.83
40994;BME280;26722;43.212;27.932;2023-01-30T06:01:21;55407.47;;;-146.72;69.35
40994;BME280;26722;43.212;27.932;2023-01-30T06:03:46;55411.69;;;-146.72;69.29
40994;BME280;26722;43.212;27.932;2023-01-30T06:06:12;55422.25;;;-146.72;69.01
40994;BME280;26722;43.212;27.932;2023-01-30T06:08:38;55392.69;;;-146.72;68.79
40994;BME280;26722;43.212;27.932;2023-01-30T06:11:08;55424.34;;;-146.72;68.70
40994;BME280;26722;43.212;27.932;2023-01-30T06:13:35;55443.34;;;-146.72;68.67
40994;BME280;26722;43.212;27.932;2023-01-30T06:16:00;55407.47;;;-146.72;68.25
40994;BME280;26722;43.212;27.932;2023-01-30T06:18:26;55418.00;;;-146.72;68.39
40994;BME280;26722;43.212;27.932;2023-01-30T06:20:52;55399.00;;;-146.72;68.10
40994;BME280;26722;43.212;27.932;2023-01-30T06:23:18;55407.47;;;-146.72;68.40
40994;BME280;26722;43.212;27.932;2023-01-30T06:25:44;55399.00;;;-146.72;68.21
40994;BME280;26722;43.212;27.932;2023-01-30T06:28:10;55422.25;;;-146.72;67.95
40994;BME280;26722;43.212;27.932;2023-01-30T06:30:36;55407.47;;;-146.72;67.98
40994;BME280;26722;43.212;27.932;2023-01-30T06:33:01;55365.22;;;-146.72;67.93
40994;BME280;26722;43.212;27.932;2023-01-30T06:35:27;55420.13;;;-146.72;67.88
40994;BME280;26722;43.212;27.932;2023-01-30T06:37:52;55428.56;;;-146.72;67.65
40994;BME280;26722;43.212;27.932;2023-01-30T06:40:18;55377.91;;;-146.72;67.31
40994;BME280;26722;43.212;27.932;2023-01-30T06:42:45;55401.13;;;-146.72;66.93
40994;BME280;26722;43.212;27.932;2023-01-30T06:45:15;55386.34;;;-146.72;66.93
40994;BME280;26722;43.212;27.932;2023-01-30T06:50:10;55369.44;;;-146.72;66.74
40994;BME280;26722;43.212;27.932;2023-01-30T06:52:40;55388.47;;;-146.72;66.40
40994;BME280;26722;43.212;27.932;2023-01-30T06:55:06;55386.34;;;-146.72;66.62
40994;BME280;26722;43.212;27.932;2023-01-30T06:57:32;55399.00;;;-146.72;67.00
40994;BME280;26722;43.212;27.932;2023-01-30T06:59:57;55377.91;;;-146.72;66.87
40994;BME280;26722;43.212;27.932;2023-01-30T07:02:23;55373.69;;;-146.72;67.08
40994;BME280;26722;43.212;27.932;2023-01-30T07:04:48;55396.91;;;-146.72;67.04
40994;BME280;26722;43.212;27.932;2023-01-30T07:07:14;55388.47;;;-146.72;66.79
40994;BME280;26722;43.212;27.932;2023-01-30T07:09:39;55401.13;;;-146.72;66.96
40994;BME280;26722;43.212;27.932;2023-01-30T07:12:05;55386.34;;;-146.72;66.54
40994;BME280;26722;43.212;27.932;2023-01-30T07:14:30;55401.13;;;-146.72;66.14
40994;BME280;26722;43.212;27.932;2023-01-30T07:16:55;55386.34;;;-146.72;66.34
40994;BME280;26722;43.212;27.932;2023-01-30T07:19:21;55373.69;;;-146.72;65.42
40994;BME280;26722;43.212;27.932;2023-01-30T07:21:46;55373.69;;;-146.72;65.41
40994;BME280;26722;43.212;27.932;2023-01-30T07:24:12;55363.13;;;-146.72;64.87
40994;BME280;26722;43.212;27.932;2023-01-30T07:26:37;55403.25;;;-146.72;64.66
40994;BME280;26722;43.212;27.932;2023-01-30T07:29:03;55386.34;;;-146.72;64.89
40994;BME280;26722;43.212;27.932;2023-01-30T07:31:28;55371.56;;;-146.72;65.31
40994;BME280;26722;43.212;27.932;2023-01-30T07:33:53;55382.13;;;-146.72;65.46
40994;BME280;26722;43.212;27.932;2023-01-30T07:36:19;55377.91;;;-146.72;65.91
40994;BME280;26722;43.212;27.932;2023-01-30T07:38:47;55392.69;;;-146.72;65.86
40994;BME280;26722;43.212;27.932;2023-01-30T07:41:13;55388.47;;;-146.72;65.83
40994;BME280;26722;43.212;27.932;2023-01-30T07:43:38;55380.00;;;-146.72;66.37
40994;BME280;26722;43.212;27.932;2023-01-30T07:46:03;55392.69;;;-146.72;66.86
40994;BME280;26722;43.212;27.932;2023-01-30T07:48:29;55394.78;;;-146.72;66.82
40994;BME280;26722;43.212;27.932;2023-01-30T07:50:55;55407.47;;;-146.72;67.34
40994;BME280;26722;43.212;27.932;2023-01-30T07:53:21;55420.13;;;-146.72;67.64
40994;BME280;26722;43.212;27.932;2023-01-30T07:55:46;55390.56;;;-146.72;67.07
40994;BME280;26722;43.212;27.932;2023-01-30T07:58:13;55361.00;;;-146.72;66.93
40994;BME280;26722;43.212;27.932;2023-01-30T08:00:40;55375.78;;;-146.72;67.23
40994;BME280;26722;43.212;27.932;2023-01-30T08:03:05;55365.22;;;-146.72;66.06
40994;BME280;26722;43.212;27.932;2023-01-30T08:05:31;55390.56;;;-146.72;65.66
40994;BME280;26722;43.212;27.932;2023-01-30T08:07:56;55428.56;;;-146.72;65.66
40994;BME280;26722;43.212;27.932;2023-01-30T08:10:22;55394.78;;;-146.72;66.08
40994;BME280;26722;43.212;27.932;2023-01-30T08:12:51;55386.34;;;-146.72;65.70
40994;BME280;26722;43.212;27.932;2023-01-30T08:15:16;55369.44;;;-146.72;65.24
40994;BME280;26722;43.212;27.932;2023-01-30T08:17:42;55388.47;;;-146.72;64.65
40994;BME280;26722;43.212;27.932;2023-01-30T08:20:08;55399.00;;;-146.72;64.71
40994;BME280;26722;43.212;27.932;2023-01-30T08:22:33;55394.78;;;-146.72;64.37
40994;BME280;26722;43.212;27.932;2023-01-30T08:24:59;55390.56;;;-146.72;63.58
40994;BME280;26722;43.212;27.932;2023-01-30T08:27:24;55403.25;;;-146.72;64.14
40994;BME280;26722;43.212;27.932;2023-01-30T08:29:50;55394.78;;;-146.72;63.35
40994;BME280;26722;43.212;27.932;2023-01-30T08:32:15;55367.34;;;-146.72;63.37
40994;BME280;26722;43.212;27.932;2023-01-30T08:34:41;55358.91;;;-146.72;63.40
40994;BME280;26722;43.212;27.932;2023-01-30T08:37:06;55407.47;;;-146.72;63.88
40994;BME280;26722;43.212;27.932;2023-01-30T08:39:31;55386.34;;;-146.72;64.27
40994;BME280;26722;43.212;27.932;2023-01-30T08:41:57;55399.00;;;-146.72;63.96
40994;BME280;26722;43.212;27.932;2023-01-30T08:44:22;55356.78;;;-146.72;63.46
40994;BME280;26722;43.212;27.932;2023-01-30T08:46:48;55367.34;;;-146.72;63.14
40994;BME280;26722;43.212;27.932;2023-01-30T08:49:13;55356.78;;;-146.72;62.73
40994;BME280;26722;43.212;27.932;2023-01-30T08:51:39;55339.91;;;-146.72;62.24
40994;BME280;26722;43.212;27.932;2023-01-30T08:54:04;55373.69;;;-146.72;61.57
40994;BME280;26722;43.212;27.932;2023-01-30T08:56:32;55356.78;;;-146.72;60.39
40994;BME280;26722;43.212;27.932;2023-01-30T08:58:57;55356.78;;;-146.72;60.39
40994;BME280;26722;43.212;27.932;2023-01-30T09:01:23;55350.44;;;-146.72;60.75
40994;BME280;26722;43.212;27.932;2023-01-30T09:03:48;55354.66;;;-146.72;61.99
40994;BME280;26722;43.212;27.932;2023-01-30T09:06:13;55373.69;;;-146.72;62.19
40994;BME280;26722;43.212;27.932;2023-01-30T09:08:39;55361.00;;;-146.72;61.79
40994;BME280;26722;43.212;27.932;2023-01-30T09:11:04;55344.13;;;-146.72;61.70
40994;BME280;26722;43.212;27.932;2023-01-30T09:13:33;55342.00;;;-146.72;60.93
40994;BME280;26722;43.212;27.932;2023-01-30T09:15:59;55331.44;;;-146.72;60.11
40994;BME280;26722;43.212;27.932;2023-01-30T09:18:24;55331.44;;;-146.72;59.37
40994;BME280;26722;43.212;27.932;2023-01-30T09:20:50;55327.22;;;-146.72;59.30
40994;BME280;26722;43.212;27.932;2023-01-30T09:23:16;55323.00;;;-146.72;59.21
40994;BME280;26722;43.212;27.932;2023-01-30T09:25:44;55323.00;;;-146.72;59.12
40994;BME280;26722;43.212;27.932;2023-01-30T09:28:10;55335.66;;;-146.72;58.46
40994;BME280;26722;43.212;27.932;2023-01-30T09:30:35;55344.13;;;-146.72;58.76
40994;BME280;26722;43.212;27.932;2023-01-30T09:33:01;55318.78;;;-146.72;58.72
40994;BME280;26722;43.212;27.932;2023-01-30T09:35:26;55337.78;;;-146.72;58.91
40994;BME280;26722;43.212;27.932;2023-01-30T09:37:52;55310.34;;;-146.72;58.30
40994;BME280;26722;43.212;27.932;2023-01-30T09:40:27;55331.44;;;-146.72;58.20
40994;BME280;26722;43.212;27.932;2023-01-30T09:51:02;55308.22;;;-146.72;59.86
40994;BME280;26722;43.212;27.932;2023-01-30T09:56:00;55306.09;;;-146.72;60.44
40994;BME280;26722;43.212;27.932;2023-01-30T09:58:36;55314.56;;;-146.72;59.13
40994;BME280;26722;43.212;27.932;2023-01-30T10:01:09;55318.78;;;-146.72;59.16
40994;BME280;26722;43.212;27.932;2023-01-30T10:03:49;55348.34;;;-146.72;59.83
40994;BME280;26722;43.212;27.932;2023-01-30T10:06:17;55304.00;;;-146.72;59.53
40994;BME280;26722;43.212;27.932;2023-01-30T10:09:01;55348.34;;;-146.72;59.50
40994;BME280;26722;43.212;27.932;2023-01-30T10:26:10;55323.00;;;-146.72;59.50
40994;BME280;26722;43.212;27.932;2023-01-30T10:28:41;55329.34;;;-146.72;59.41
40994;BME280;26722;43.212;27.932;2023-01-30T10:31:11;55306.09;;;-146.72;58.61
40994;BME280;26722;43.212;27.932;2023-01-30T10:33:43;55291.34;;;-146.72;58.04
40994;BME280;26722;43.212;27.932;2023-01-30T10:36:15;55276.56;;;-146.72;56.91
40994;BME280;26722;43.212;27.932;2023-01-30T10:38:48;55293.44;;;-146.72;55.96
40994;BME280;26722;43.212;27.932;2023-01-30T10:41:20;55289.22;;;-146.72;55.05
40994;BME280;26722;43.212;27.932;2023-01-30T10:43:54;55272.31;;;-146.72;55.11
40994;BME280;26722;43.212;27.932;2023-01-30T10:46:38;55280.78;;;-146.72;53.92
40994;BME280;26722;43.212;27.932;2023-01-30T10:54:47;55257.56;;;-146.72;51.57
40994;BME280;26722;43.212;27.932;2023-01-30T10:57:37;55238.53;;;-146.72;50.17
40994;BME280;26722;43.212;27.932;2023-01-30T11:00:07;55259.66;;;-146.72;49.93
40994;BME280;26722;43.212;27.932;2023-01-30T11:05:24;55247.00;;;-146.72;49.01
40994;BME280;26722;43.212;27.932;2023-01-30T11:07:51;55234.31;;;-146.72;49.27
40994;BME280;26722;43.212;27.932;2023-01-30T11:10:22;55230.09;;;-146.72;48.15
40994;BME280;26722;43.212;27.932;2023-01-30T11:13:00;55232.22;;;-146.72;47.36
40994;BME280;26722;43.212;27.932;2023-01-30T11:15:40;55240.66;;;-146.72;47.81
40994;BME280;26722;43.212;27.932;2023-01-30T11:18:06;55217.44;;;-146.72;48.07
40994;BME280;26722;43.212;27.932;2023-01-30T11:20:41;55236.44;;;-146.72;48.29
40994;BME280;26722;43.212;27.932;2023-01-30T11:23:22;55240.66;;;-146.72;48.22
40994;BME280;26722;43.212;27.932;2023-01-30T11:25:50;55221.66;;;-146.72;48.59
40994;BME280;26722;43.212;27.932;2023-01-30T11:28:15;55234.31;;;-146.72;49.34
40994;BME280;26722;43.212;27.932;2023-01-30T11:30:55;55255.44;;;-146.72;49.48
40994;BME280;26722;43.212;27.932;2023-01-30T11:33:30;55247.00;;;-146.72;49.38
40994;BME280;26722;43.212;27.932;2023-01-30T11:36:08;55223.78;;;-146.72;49.01
40994;BME280;26722;43.212;27.932;2023-01-30T11:38:58;55217.44;;;-146.72;48.74
40994;BME280;26722;43.212;27.932;2023-01-30T11:41:25;55236.44;;;-146.72;48.67
40994;BME280;26722;43.212;27.932;2023-01-30T11:43:58;55234.31;;;-146.72;47.80
40994;BME280;26722;43.212;27.932;2023-01-30T11:46:32;55268.09;;;-146.72;47.52
40994;BME280;26722;43.212;27.932;2023-01-30T11:49:01;55255.44;;;-146.72;47.87
40994;BME280;26722;43.212;27.932;2023-01-30T11:51:28;55255.44;;;-146.72;47.59
40994;BME280;26722;43.212;27.932;2023-01-30T11:54:03;55261.78;;;-146.72;48.00
40994;BME280;26722;43.212;27.932;2023-01-30T11:56:41;55242.78;;;-146.72;47.66
40994;BME280;26722;43.212;27.932;2023-01-30T11:59:30;55285.00;;;-146.72;48.02
40994;BME280;26722;43.212;27.932;2023-01-30T12:02:00;55225.88;;;-146.72;47.65
40994;BME280;26722;43.212;27.932;2023-01-30T12:04:27;55251.22;;;-146.72;47.81
40994;BME280;26722;43.212;27.932;2023-01-30T12:07:12;55249.09;;;-146.72;48.26
40994;BME280;26722;43.212;27.932;2023-01-30T12:09:40;55236.44;;;-146.72;48.42
40994;BME280;26722;43.212;27.932;2023-01-30T12:15:00;55276.56;;;-146.72;47.48
40994;BME280;26722;43.212;27.932;2023-01-30T12:20:38;55268.09;;;-146.72;48.38
40994;BME280;26722;43.212;27.932;2023-01-30T12:23:10;55276.56;;;-146.72;48.64
40994;BME280;26722;43.212;27.932;2023-01-30T12:25:41;55272.31;;;-146.72;48.64
40994;BME280;26722;43.212;27.932;2023-01-30T12:28:25;55272.31;;;-146.72;49.24
40994;BME280;26722;43.212;27.932;2023-01-30T12:30:59;55289.22;;;-146.72;49.65
40994;BME280;26722;43.212;27.932;2023-01-30T12:33:31;55304.00;;;-146.72;50.61
40994;BME280;26722;43.212;27.932;2023-01-30T12:41:58;55297.66;;;-146.72;50.71
40994;BME280;26722;43.212;27.932;2023-01-30T12:50:12;55316.66;;;-146.72;51.94
40994;BME280;26722;43.212;27.932;2023-01-30T12:52:52;55306.09;;;-146.72;52.64
40994;BME280;26722;43.212;27.932;2023-01-30T12:55:48;55344.13;;;-146.72;52.68
40994;BME280;26722;43.212;27.932;2023-01-30T12:58:24;55295.56;;;-146.72;52.27
40994;BME280;26722;43.212;27.932;2023-01-30T13:01:41;55287.09;;;-146.72;52.22
40994;BME280;26722;43.212;27.932;2023-01-30T13:14:50;55325.13;;;-146.72;52.63
40994;BME280;26722;43.212;27.932;2023-01-30T13:20:13;55329.34;;;-146.72;55.09
40994;BME280;26722;43.212;27.932;2023-01-30T13:23:05;55335.66;;;-146.72;55.36
40994;BME280;26722;43.212;27.932;2023-01-30T13:25:50;55327.22;;;-146.72;54.98
40994;BME280;26722;43.212;27.932;2023-01-30T13:28:25;55310.34;;;-146.72;54.82
40994;BME280;26722;43.212;27.932;2023-01-30T13:30:53;55335.66;;;-146.72;55.57
40994;BME280;26722;43.212;27.932;2023-01-30T13:33:32;55346.22;;;-146.72;55.37
40994;BME280;26722;43.212;27.932;2023-01-30T13:36:19;55356.78;;;-146.72;56.37
40994;BME280;26722;43.212;27.932;2023-01-30T13:39:30;55356.78;;;-146.72;56.70
40994;BME280;26722;43.212;27.932;2023-01-30T13:41:54;55316.66;;;-146.72;57.28
40994;BME280;26722;43.212;27.932;2023-01-30T13:44:24;55342.00;;;-146.72;57.33
40994;BME280;26722;43.212;27.932;2023-01-30T13:46:52;55350.44;;;-146.72;57.55
40994;BME280;26722;43.212;27.932;2023-01-30T13:49:35;55335.66;;;-146.72;57.54
40994;BME280;26722;43.212;27.932;2023-01-30T13:52:19;55337.78;;;-146.72;57.11
40994;BME280;26722;43.212;27.932;2023-01-30T13:57:31;55361.00;;;-146.72;55.57
40994;BME280;26722;43.212;27.932;2023-01-30T14:00:34;55327.22;;;-146.72;55.40
40994;BME280;26722;43.212;27.932;2023-01-30T14:08:29;55314.56;;;-146.72;56.13
40994;BME280;26722;43.212;27.932;2023-01-30T14:10:58;55344.13;;;-146.72;56.55
40994;BME280;26722;43.212;27.932;2023-01-30T14:13:25;55342.00;;;-146.72;56.44
40994;BME280;26722;43.212;27.932;2023-01-30T14:15:59;55363.13;;;-146.72;56.26
40994;BME280;26722;43.212;27.932;2023-01-30T14:18:33;55310.34;;;-146.72;56.45
40994;BME280;26722;43.212;27.932;2023-01-30T14:21:20;55361.00;;;-146.72;56.46
40994;BME280;26722;43.212;27.932;2023-01-30T14:24:00;55352.56;;;-146.72;56.79
40994;BME280;26722;43.212;27.932;2023-01-30T14:26:59;55348.34;;;-146.72;57.39
40994;BME280;26722;43.212;27.932;2023-01-30T14:34:49;55327.22;;;-146.72;57.84
40994;BME280;26722;43.212;27.932;2023-01-30T14:37:48;55337.78;;;-146.72;58.27